createdAt,value
2018-07-27T00:00:37.283Z,1009.92
2018-07-27T00:01:37.615Z,1009.92
2018-07-27T00:02:37.350Z,1009.90
2018-07-27T00:03:37.446Z,1009.90
2018-07-27T00:04:37.478Z,1009.91
2018-07-27T00:05:37.516Z,1009.89
2018-07-27T00:06:37.507Z,1009.86
2018-07-27T00:07:37.586Z,1009.88
2018-07-27T00:08:37.878Z,1009.88
2018-07-27T00:09:37.613Z,1009.88
2018-07-27T00:10:37.650Z,1009.88
2018-07-27T00:11:37.687Z,1009.89
2018-07-27T00:12:37.782Z,1009.91
2018-07-27T00:13:37.817Z,1009.87
2018-07-27T00:14:37.851Z,1009.88
2018-07-27T00:15:38.136Z,1009.86
2018-07-27T00:16:37.922Z,1009.86
2018-07-27T00:17:37.964Z,1009.86
2018-07-27T00:18:37.994Z,1009.84
2018-07-27T00:19:38.031Z,1009.82
2018-07-27T00:20:38.021Z,1009.81
2018-07-27T00:21:38.105Z,1009.80
2018-07-27T00:22:38.394Z,1009.81
2018-07-27T00:23:38.124Z,1009.81
2018-07-27T00:24:38.216Z,1009.74
2018-07-27T00:25:38.249Z,1009.75
2018-07-27T00:26:38.241Z,1009.80
2018-07-27T00:27:38.284Z,1009.78
2018-07-27T00:28:38.368Z,1009.79
2018-07-27T00:29:38.707Z,1009.77
2018-07-27T00:30:38.389Z,1009.78
2018-07-27T00:31:38.425Z,1009.80
2018-07-27T00:32:38.463Z,1009.78
2018-07-27T00:33:38.498Z,1009.80
2018-07-27T00:34:38.583Z,1009.78
2018-07-27T00:35:38.572Z,1009.81
2018-07-27T00:36:38.971Z,1009.80
2018-07-27T00:37:38.645Z,1009.77
2018-07-27T00:38:38.730Z,1009.82
2018-07-27T00:39:38.773Z,1009.79
2018-07-27T00:40:38.802Z,1009.81
2018-07-27T00:41:38.795Z,1009.77
2018-07-27T00:42:38.827Z,1009.77
2018-07-27T00:43:39.171Z,1009.74
2018-07-27T00:44:38.947Z,1009.77
2018-07-27T00:45:38.940Z,1009.78
2018-07-27T00:46:39.026Z,1009.74
2018-07-27T00:47:39.063Z,1009.77
2018-07-27T00:48:39.099Z,1009.75
2018-07-27T00:49:39.386Z,1009.78
2018-07-27T00:50:39.125Z,1009.79
2018-07-27T00:51:39.205Z,1009.77
2018-07-27T00:52:39.192Z,1009.74
2018-07-27T00:53:39.280Z,1009.81
2018-07-27T00:54:39.264Z,1009.77
2018-07-27T00:55:39.628Z,1009.82
2018-07-27T00:57:39.426Z,1009.79
2018-07-27T00:58:39.418Z,1009.80
2018-07-27T00:59:39.450Z,1009.77
2018-07-27T01:00:39.538Z,1009.77
2018-07-27T01:01:39.831Z,1009.76
2018-07-27T01:02:39.610Z,1009.79
2018-07-27T01:03:39.604Z,1009.75
2018-07-27T01:04:39.683Z,1009.76
2018-07-27T01:05:39.714Z,1009.77
2018-07-27T01:06:39.702Z,1009.76
2018-07-27T01:07:39.742Z,1009.75
2018-07-27T01:08:40.083Z,1009.76
2018-07-27T01:09:39.819Z,1009.72
2018-07-27T01:10:39.897Z,1009.73
2018-07-27T01:11:39.892Z,1009.74
2018-07-27T01:12:39.973Z,1009.73
2018-07-27T01:13:39.960Z,1009.68
2018-07-27T01:14:39.997Z,1009.69
2018-07-27T01:15:40.342Z,1009.72
2018-07-27T01:16:40.116Z,1009.71
2018-07-27T01:17:40.107Z,1009.71
2018-07-27T01:18:40.139Z,1009.69
2018-07-27T01:19:40.231Z,1009.72
2018-07-27T01:20:40.271Z,1009.71
2018-07-27T01:21:40.300Z,1009.70
2018-07-27T01:22:40.586Z,1009.72
2018-07-27T01:23:40.319Z,1009.72
2018-07-27T01:24:40.371Z,1009.69
2018-07-27T01:25:40.391Z,1009.66
2018-07-27T01:26:40.487Z,1009.68
2018-07-27T01:27:40.479Z,1009.68
2018-07-27T01:28:40.559Z,1009.65
2018-07-27T01:29:40.848Z,1009.62
2018-07-27T01:30:40.633Z,1009.63
2018-07-27T01:31:40.678Z,1009.59
2018-07-27T01:32:40.653Z,1009.61
2018-07-27T01:34:40.724Z,1009.57
2018-07-27T01:35:40.813Z,1009.58
2018-07-27T01:36:41.150Z,1009.60
2018-07-27T01:37:40.883Z,1009.59
2018-07-27T01:38:40.863Z,1009.62
2018-07-27T01:39:40.954Z,1009.61
2018-07-27T01:40:40.942Z,1009.58
2018-07-27T01:41:41.027Z,1009.61
2018-07-27T01:42:41.013Z,1009.59
2018-07-27T01:43:41.352Z,1009.57
2018-07-27T01:44:41.141Z,1009.56
2018-07-27T01:45:41.120Z,1009.57
2018-07-27T01:46:41.156Z,1009.55
2018-07-27T01:47:41.244Z,1009.53
2018-07-27T01:48:41.284Z,1009.53
2018-07-27T01:49:41.268Z,1009.54
2018-07-27T01:50:41.761Z,1009.55
2018-07-27T01:51:41.388Z,1009.58
2018-07-27T01:52:41.426Z,1009.53
2018-07-27T01:53:41.474Z,1009.55
2018-07-27T01:54:41.451Z,1009.57
2018-07-27T01:55:41.481Z,1009.55
2018-07-27T01:56:41.573Z,1009.54
2018-07-27T01:57:41.853Z,1009.55
2018-07-27T01:58:41.594Z,1009.56
2018-07-27T01:59:41.627Z,1009.55
2018-07-27T02:00:41.715Z,1009.52
2018-07-27T02:01:41.696Z,1009.57
2018-07-27T02:02:41.784Z,1009.54
2018-07-27T02:03:41.782Z,1009.51
2018-07-27T02:04:42.106Z,1009.55
2018-07-27T02:05:41.896Z,1009.54
2018-07-27T02:06:41.880Z,1009.49
2018-07-27T02:07:41.968Z,1009.47
2018-07-27T02:08:42.004Z,1009.52
2018-07-27T02:09:41.989Z,1009.47
2018-07-27T02:10:42.077Z,1009.47
2018-07-27T02:11:42.360Z,1009.49
2018-07-27T02:12:42.149Z,1009.44
2018-07-27T02:14:42.217Z,1009.48
2018-07-27T02:15:42.259Z,1009.50
2018-07-27T02:16:42.305Z,1009.52
2018-07-27T02:17:42.326Z,1009.49
2018-07-27T02:18:42.618Z,1009.47
2018-07-27T02:19:42.353Z,1009.46
2018-07-27T02:20:42.436Z,1009.49
2018-07-27T02:21:42.469Z,1009.50
2018-07-27T02:22:42.465Z,1009.45
2018-07-27T02:23:42.547Z,1009.40
2018-07-27T02:24:42.830Z,1009.41
2018-07-27T02:25:42.563Z,1009.45
2018-07-27T02:26:42.704Z,1009.42
2018-07-27T02:27:42.689Z,1009.45
2018-07-27T02:28:42.726Z,1009.42
2018-07-27T02:29:42.712Z,1009.43
2018-07-27T02:30:43.047Z,1009.42
2018-07-27T02:31:42.836Z,1009.37
2018-07-27T02:32:42.866Z,1009.37
2018-07-27T02:33:42.903Z,1009.39
2018-07-27T02:34:42.891Z,1009.41
2018-07-27T02:35:42.931Z,1009.42
2018-07-27T02:36:43.264Z,1009.36
2018-07-27T02:37:43.044Z,1009.38
2018-07-27T02:38:43.081Z,1009.43
2018-07-27T02:39:43.071Z,1009.36
2018-07-27T02:40:43.161Z,1009.36
2018-07-27T02:41:43.145Z,1009.38
2018-07-27T02:42:43.183Z,1009.31
2018-07-27T02:43:43.520Z,1009.37
2018-07-27T02:44:43.257Z,1009.35
2018-07-27T02:45:43.338Z,1009.37
2018-07-27T02:46:43.321Z,1009.37
2018-07-27T02:47:43.361Z,1009.39
2018-07-27T02:48:43.443Z,1009.34
2018-07-27T02:49:43.488Z,1009.35
2018-07-27T02:50:43.764Z,1009.35
2018-07-27T02:51:43.501Z,1009.34
2018-07-27T02:52:43.589Z,1009.36
2018-07-27T02:53:43.621Z,1009.36
2018-07-27T02:54:43.711Z,1009.34
2018-07-27T02:55:43.703Z,1009.35
2018-07-27T02:56:43.736Z,1009.35
2018-07-27T02:57:44.014Z,1009.33
2018-07-27T02:58:43.810Z,1009.29
2018-07-27T02:59:43.791Z,1009.29
2018-07-27T03:00:43.828Z,1009.31
2018-07-27T03:01:43.862Z,1009.31
2018-07-27T03:02:43.894Z,1009.29
2018-07-27T03:03:43.983Z,1009.30
2018-07-27T03:04:44.270Z,1009.30
2018-07-27T03:05:44.012Z,1009.31
2018-07-27T03:06:44.093Z,1009.29
2018-07-27T03:07:44.075Z,1009.34
2018-07-27T03:08:44.157Z,1009.32
2018-07-27T03:09:44.235Z,1009.30
2018-07-27T03:10:44.183Z,1009.30
2018-07-27T03:11:44.519Z,1009.28
2018-07-27T03:12:44.254Z,1009.26
2018-07-27T03:13:44.289Z,1009.27
2018-07-27T03:16:44.396Z,1009.25
2018-07-27T03:17:44.478Z,1009.26
2018-07-27T03:18:44.765Z,1009.22
2018-07-27T03:19:44.504Z,1009.26
2018-07-27T03:20:44.583Z,1009.25
2018-07-27T03:21:44.576Z,1009.24
2018-07-27T03:22:44.661Z,1009.21
2018-07-27T03:23:44.647Z,1009.22
2018-07-27T03:24:44.727Z,1009.19
2018-07-27T03:25:45.025Z,1009.25
2018-07-27T03:26:44.806Z,1009.18
2018-07-27T03:27:44.848Z,1009.18
2018-07-27T03:28:44.898Z,1009.19
2018-07-27T03:29:44.922Z,1009.20
2018-07-27T03:30:44.947Z,1009.19
2018-07-27T03:31:45.005Z,1009.20
2018-07-27T03:32:45.267Z,1009.19
2018-07-27T03:33:45.003Z,1009.16
2018-07-27T03:34:45.096Z,1009.17
2018-07-27T03:35:45.075Z,1009.16
2018-07-27T03:36:45.158Z,1009.13
2018-07-27T03:37:45.200Z,1009.16
2018-07-27T03:38:45.176Z,1009.21
2018-07-27T03:39:45.520Z,1009.20
2018-07-27T03:40:45.301Z,1009.20
2018-07-27T03:41:45.340Z,1009.20
2018-07-27T03:42:45.377Z,1009.19
2018-07-27T03:43:45.386Z,1009.18
2018-07-27T03:44:45.447Z,1009.21
2018-07-27T03:45:45.482Z,1009.21
2018-07-27T03:46:45.765Z,1009.18
2018-07-27T03:47:45.502Z,1009.18
2018-07-27T03:48:45.540Z,1009.19
2018-07-27T03:49:45.568Z,1009.16
2018-07-27T03:50:45.652Z,1009.19
2018-07-27T03:51:45.640Z,1009.17
2018-07-27T03:52:45.727Z,1009.17
2018-07-27T03:53:46.021Z,1009.20
2018-07-27T03:54:45.799Z,1009.16
2018-07-27T03:55:45.833Z,1009.14
2018-07-27T03:56:45.876Z,1009.16
2018-07-27T03:57:45.906Z,1009.15
2018-07-27T03:58:45.889Z,1009.12
2018-07-27T03:59:45.941Z,1009.11
2018-07-27T04:00:46.273Z,1009.11
2018-07-27T04:01:46.046Z,1009.15
2018-07-27T04:02:46.086Z,1009.13
2018-07-27T04:03:46.073Z,1009.18
2018-07-27T04:04:46.158Z,1009.17
2018-07-27T04:05:46.196Z,1009.22
2018-07-27T04:06:46.529Z,1009.19
2018-07-27T04:08:46.298Z,1009.24
2018-07-27T04:09:46.331Z,1009.23
2018-07-27T04:10:46.382Z,1009.25
2018-07-27T04:11:46.410Z,1009.25
2018-07-27T04:12:46.691Z,1009.24
2018-07-27T04:13:46.428Z,1009.25
2018-07-27T04:14:46.468Z,1009.28
2018-07-27T04:15:46.552Z,1009.31
2018-07-27T04:16:46.537Z,1009.28
2018-07-27T04:18:46.620Z,1009.30
2018-07-27T04:19:46.953Z,1009.27
2018-07-27T04:20:46.682Z,1009.32
2018-07-27T04:21:46.766Z,1009.32
2018-07-27T04:22:46.753Z,1009.30
2018-07-27T04:23:46.790Z,1009.33
2018-07-27T04:24:46.870Z,1009.35
2018-07-27T04:25:47.157Z,1009.34
2018-07-27T04:26:46.896Z,1009.33
2018-07-27T04:27:46.925Z,1009.34
2018-07-27T04:28:46.965Z,1009.35
2018-07-27T04:29:47.046Z,1009.34
2018-07-27T04:30:47.032Z,1009.34
2018-07-27T04:32:47.109Z,1009.37
2018-07-27T04:33:47.490Z,1009.38
2018-07-27T04:34:47.173Z,1009.37
2018-07-27T04:35:47.302Z,1009.39
2018-07-27T04:37:47.290Z,1009.37
2018-07-27T04:38:47.319Z,1009.38
2018-07-27T04:39:47.408Z,1009.37
2018-07-27T04:41:47.736Z,1009.39
2018-07-27T04:42:47.538Z,1009.36
2018-07-27T04:43:47.502Z,1009.39
2018-07-27T04:44:47.599Z,1009.36
2018-07-27T04:45:47.625Z,1009.41
2018-07-27T04:46:47.712Z,1009.40
2018-07-27T04:47:47.940Z,1009.39
2018-07-27T04:48:47.680Z,1009.39
2018-07-27T04:49:47.714Z,1009.35
2018-07-27T04:50:47.804Z,1009.38
2018-07-27T04:51:47.790Z,1009.39
2018-07-27T04:52:47.827Z,1009.37
2018-07-27T04:53:47.866Z,1009.33
2018-07-27T04:54:48.190Z,1009.34
2018-07-27T04:55:47.980Z,1009.35
2018-07-27T04:56:48.079Z,1009.31
2018-07-27T04:57:47.999Z,1009.38
2018-07-27T04:58:48.038Z,1009.33
2018-07-27T04:59:48.084Z,1009.34
2018-07-27T05:00:48.159Z,1009.38
2018-07-27T05:01:48.448Z,1009.35
2018-07-27T05:02:48.186Z,1009.38
2018-07-27T05:03:48.214Z,1009.37
2018-07-27T05:04:48.384Z,1009.43
2018-07-27T05:05:48.293Z,1009.40
2018-07-27T05:06:48.380Z,1009.37
2018-07-27T05:07:48.361Z,1009.40
2018-07-27T05:08:48.749Z,1009.33
2018-07-27T05:09:48.434Z,1009.40
2018-07-27T05:10:48.515Z,1009.37
2018-07-27T05:11:48.571Z,1009.38
2018-07-27T05:12:48.545Z,1009.36
2018-07-27T05:13:48.585Z,1009.38
2018-07-27T05:14:48.613Z,1009.39
2018-07-27T05:15:48.954Z,1009.36
2018-07-27T05:16:48.737Z,1009.37
2018-07-27T05:17:48.775Z,1009.38
2018-07-27T05:18:48.759Z,1009.38
2018-07-27T05:19:48.797Z,1009.38
2018-07-27T05:20:48.827Z,1009.41
2018-07-27T05:21:48.915Z,1009.37
2018-07-27T05:23:49.242Z,1009.36
2018-07-27T05:24:49.032Z,1009.38
2018-07-27T05:25:49.011Z,1009.36
2018-07-27T05:26:49.049Z,1009.38
2018-07-27T05:27:49.127Z,1009.36
2018-07-27T05:28:49.163Z,1009.40
2018-07-27T05:29:49.166Z,1009.36
2018-07-27T05:30:49.500Z,1009.30
2018-07-27T05:31:49.227Z,1009.35
2018-07-27T05:32:49.264Z,1009.33
2018-07-27T05:33:49.355Z,1009.32
2018-07-27T05:34:49.345Z,1009.30
2018-07-27T05:35:49.423Z,1009.33
2018-07-27T05:36:49.454Z,1009.35
2018-07-27T05:37:49.753Z,1009.34
2018-07-27T05:38:49.532Z,1009.33
2018-07-27T05:39:49.564Z,1009.29
2018-07-27T05:40:49.552Z,1009.34
2018-07-27T05:41:49.640Z,1009.30
2018-07-27T05:42:49.619Z,1009.31
2018-07-27T05:43:49.712Z,1009.31
2018-07-27T05:44:49.994Z,1009.30
2018-07-27T05:45:49.729Z,1009.32
2018-07-27T05:46:49.877Z,1009.32
2018-07-27T05:47:49.799Z,1009.32
2018-07-27T05:48:49.893Z,1009.35
2018-07-27T05:49:49.875Z,1009.30
2018-07-27T05:50:49.913Z,1009.33
2018-07-27T05:51:50.347Z,1009.31
2018-07-27T05:52:50.091Z,1009.34
2018-07-27T05:53:50.081Z,1009.35
2018-07-27T05:54:50.058Z,1009.36
2018-07-27T05:55:50.098Z,1009.37
2018-07-27T05:56:50.178Z,1009.39
2018-07-27T05:57:50.239Z,1009.40
2018-07-27T05:58:50.505Z,1009.39
2018-07-27T05:59:50.290Z,1009.40
2018-07-27T06:00:50.330Z,1009.39
2018-07-27T06:01:50.309Z,1009.45
2018-07-27T06:02:50.367Z,1009.40
2018-07-27T06:03:50.398Z,1009.42
2018-07-27T06:04:50.496Z,1009.42
2018-07-27T06:05:50.761Z,1009.42
2018-07-27T06:06:50.492Z,1009.45
2018-07-27T06:07:50.589Z,1009.40
2018-07-27T06:08:50.622Z,1009.44
2018-07-27T06:09:50.651Z,1009.44
2018-07-27T06:10:50.641Z,1009.44
2018-07-27T06:11:50.681Z,1009.43
2018-07-27T06:12:51.013Z,1009.41
2018-07-27T06:13:50.796Z,1009.41
2018-07-27T06:14:50.788Z,1009.44
2018-07-27T06:15:50.881Z,1009.42
2018-07-27T06:16:50.909Z,1009.44
2018-07-27T06:17:50.961Z,1009.40
2018-07-27T06:18:50.978Z,1009.40
2018-07-27T06:19:51.266Z,1009.43
2018-07-27T06:20:51.056Z,1009.40
2018-07-27T06:21:51.092Z,1009.39
2018-07-27T06:22:51.128Z,1009.43
2018-07-27T06:23:51.136Z,1009.39
2018-07-27T06:24:51.201Z,1009.37
2018-07-27T06:25:51.179Z,1009.40
2018-07-27T06:26:51.275Z,1009.40
2018-07-27T06:27:51.259Z,1009.43
2018-07-27T06:28:51.341Z,1009.41
2018-07-27T06:29:51.440Z,1009.42
2018-07-27T06:30:51.417Z,1009.40
2018-07-27T06:31:51.453Z,1009.44
2018-07-27T06:32:51.492Z,1009.37
2018-07-27T06:33:51.481Z,1009.38
2018-07-27T06:34:51.508Z,1009.37
2018-07-27T06:35:51.553Z,1009.37
2018-07-27T06:36:51.640Z,1009.37
2018-07-27T06:37:51.667Z,1009.35
2018-07-27T06:38:51.984Z,1009.38
2018-07-27T06:39:51.706Z,1009.34
2018-07-27T06:40:51.786Z,1009.36
2018-07-27T06:41:51.816Z,1009.33
2018-07-27T06:42:51.859Z,1009.33
2018-07-27T06:43:51.839Z,1009.32
2018-07-27T06:44:52.187Z,1009.34
2018-07-27T06:45:51.907Z,1009.28
2018-07-27T06:46:51.947Z,1009.30
2018-07-27T06:47:52.353Z,1009.33
2018-07-27T06:48:52.071Z,1009.36
2018-07-27T06:49:52.114Z,1009.32
2018-07-27T06:50:52.261Z,1009.36
2018-07-27T06:51:52.439Z,1009.33
2018-07-27T06:52:52.217Z,1009.32
2018-07-27T06:53:52.258Z,1009.34
2018-07-27T06:54:52.287Z,1009.38
2018-07-27T06:55:52.274Z,1009.34
2018-07-27T06:56:52.318Z,1009.37
2018-07-27T06:57:52.360Z,1009.36
2018-07-27T06:58:52.705Z,1009.37
2018-07-27T06:59:52.470Z,1009.37
2018-07-27T07:01:52.512Z,1009.36
2018-07-27T07:02:52.541Z,1009.34
2018-07-27T07:03:52.576Z,1009.32
2018-07-27T07:04:52.663Z,1009.33
2018-07-27T07:05:52.947Z,1009.35
2018-07-27T07:06:52.729Z,1009.31
2018-07-27T07:07:52.717Z,1009.33
2018-07-27T07:08:52.763Z,1009.34
2018-07-27T07:09:52.863Z,1009.34
2018-07-27T07:10:52.880Z,1009.34
2018-07-27T07:11:52.875Z,1009.33
2018-07-27T07:12:53.202Z,1009.37
2018-07-27T07:13:52.987Z,1009.39
2018-07-27T07:14:52.971Z,1009.33
2018-07-27T07:15:53.063Z,1009.37
2018-07-27T07:16:53.097Z,1009.35
2018-07-27T07:17:53.095Z,1009.31
2018-07-27T07:18:53.172Z,1009.33
2018-07-27T07:19:53.458Z,1009.31
2018-07-27T07:20:53.204Z,1009.34
2018-07-27T07:21:53.228Z,1009.31
2018-07-27T07:22:53.267Z,1009.30
2018-07-27T07:23:53.367Z,1009.28
2018-07-27T07:24:53.391Z,1009.29
2018-07-27T07:25:53.726Z,1009.28
2018-07-27T07:26:53.715Z,1009.28
2018-07-27T07:27:53.446Z,1009.28
2018-07-27T07:28:53.564Z,1009.25
2018-07-27T07:29:53.575Z,1009.30
2018-07-27T07:30:53.614Z,1009.27
2018-07-27T07:31:53.594Z,1009.25
2018-07-27T07:32:53.679Z,1009.27
2018-07-27T07:33:54.011Z,1009.26
2018-07-27T07:34:53.765Z,1009.28
2018-07-27T07:35:53.781Z,1009.27
2018-07-27T07:36:53.835Z,1009.22
2018-07-27T07:37:53.881Z,1009.26
2018-07-27T07:38:53.879Z,1009.29
2018-07-27T07:39:53.940Z,1009.28
2018-07-27T07:40:54.226Z,1009.29
2018-07-27T07:41:53.957Z,1009.23
2018-07-27T07:42:54.052Z,1009.21
2018-07-27T07:44:54.157Z,1009.19
2018-07-27T07:45:54.162Z,1009.21
2018-07-27T07:46:54.145Z,1009.21
2018-07-27T07:47:54.484Z,1009.18
2018-07-27T07:48:54.266Z,1009.19
2018-07-27T07:49:54.308Z,1009.17
2018-07-27T07:50:54.305Z,1009.18
2018-07-27T07:52:55.827Z,1009.12
2018-07-27T07:54:54.483Z,1009.10
2018-07-27T07:55:54.524Z,1009.05
2018-07-27T07:56:54.559Z,1009.08
2018-07-27T07:57:54.598Z,1009.07
2018-07-27T07:58:54.635Z,1009.06
2018-07-27T07:59:54.629Z,1009.05
2018-07-27T08:00:55.009Z,1009.02
2018-07-27T08:01:54.749Z,1009.02
2018-07-27T08:02:54.733Z,1009.02
2018-07-27T08:03:54.766Z,1009.04
2018-07-27T08:04:54.857Z,1009.03
2018-07-27T08:05:54.907Z,1009.00
2018-07-27T08:06:55.237Z,1009.02
2018-07-27T08:07:54.920Z,1009.01
2018-07-27T08:08:55.002Z,1009.00
2018-07-27T08:09:55.395Z,1008.96
2018-07-27T08:10:55.026Z,1008.96
2018-07-27T08:12:55.152Z,1008.95
2018-07-27T08:13:55.442Z,1008.95
2018-07-27T08:14:55.173Z,1008.91
2018-07-27T08:15:55.227Z,1008.90
2018-07-27T08:16:55.266Z,1008.92
2018-07-27T08:17:55.341Z,1008.91
2018-07-27T08:18:55.325Z,1008.92
2018-07-27T08:19:55.662Z,1008.95
2018-07-27T08:20:55.448Z,1008.92
2018-07-27T08:21:55.477Z,1008.90
2018-07-27T08:22:55.472Z,1008.91
2018-07-27T08:23:55.501Z,1008.89
2018-07-27T08:25:55.658Z,1008.85
2018-07-27T08:26:55.919Z,1008.90
2018-07-27T08:27:55.697Z,1008.88
2018-07-27T08:28:55.738Z,1008.85
2018-07-27T08:29:55.752Z,1008.85
2018-07-27T08:30:55.782Z,1008.87
2018-07-27T08:31:55.863Z,1008.85
2018-07-27T08:32:55.885Z,1008.87
2018-07-27T08:33:56.172Z,1008.85
2018-07-27T08:34:55.963Z,1008.81
2018-07-27T08:35:56.001Z,1008.84
2018-07-27T08:37:56.078Z,1008.83
2018-07-27T08:38:56.132Z,1008.85
2018-07-27T08:39:56.098Z,1008.77
2018-07-27T08:40:56.484Z,1008.83
2018-07-27T08:41:56.220Z,1008.79
2018-07-27T08:42:56.212Z,1008.80
2018-07-27T08:43:56.286Z,1008.79
2018-07-27T08:44:56.327Z,1008.77
2018-07-27T08:45:56.370Z,1008.76
2018-07-27T08:46:56.408Z,1008.76
2018-07-27T08:47:56.402Z,1008.72
2018-07-27T08:48:56.429Z,1008.72
2018-07-27T08:49:56.510Z,1008.70
2018-07-27T08:50:56.495Z,1008.73
2018-07-27T08:51:56.549Z,1008.72
2018-07-27T08:52:56.621Z,1008.71
2018-07-27T08:53:56.915Z,1008.66
2018-07-27T08:54:56.698Z,1008.67
2018-07-27T08:55:56.690Z,1008.68
2018-07-27T08:56:56.722Z,1008.66
2018-07-27T08:57:56.782Z,1008.65
2018-07-27T08:58:56.792Z,1008.65
2018-07-27T08:59:56.889Z,1008.63
2018-07-27T09:00:57.222Z,1008.59
2018-07-27T09:01:56.957Z,1008.62
2018-07-27T09:02:56.941Z,1008.57
2018-07-27T09:03:57.033Z,1008.53
2018-07-27T09:04:57.067Z,1008.55
2018-07-27T09:05:57.048Z,1008.56
2018-07-27T09:06:57.134Z,1008.55
2018-07-27T09:07:57.425Z,1008.54
2018-07-27T09:08:57.162Z,1008.52
2018-07-27T09:09:57.265Z,1008.50
2018-07-27T09:10:57.243Z,1008.53
2018-07-27T09:11:57.278Z,1008.52
2018-07-27T09:12:57.361Z,1008.48
2018-07-27T09:13:57.349Z,1008.49
2018-07-27T09:14:57.686Z,1008.51
2018-07-27T09:15:57.418Z,1008.44
2018-07-27T09:16:57.525Z,1008.44
2018-07-27T09:17:57.542Z,1008.46
2018-07-27T09:18:57.534Z,1008.46
2018-07-27T09:19:57.584Z,1008.44
2018-07-27T09:20:57.618Z,1008.47
2018-07-27T09:21:57.953Z,1008.42
2018-07-27T09:22:57.681Z,1008.41
2018-07-27T09:23:57.713Z,1008.38
2018-07-27T09:24:58.123Z,1008.43
2018-07-27T09:25:57.788Z,1008.43
2018-07-27T09:26:57.879Z,1008.42
2018-07-27T09:27:57.870Z,1008.43
2018-07-27T09:28:57.950Z,1008.45
2018-07-27T09:29:57.990Z,1008.46
2018-07-27T09:30:57.977Z,1008.45
2018-07-27T09:31:58.060Z,1008.44
2018-07-27T09:32:58.104Z,1008.38
2018-07-27T09:33:58.386Z,1008.36
2018-07-27T09:34:58.127Z,1008.35
2018-07-27T09:35:58.156Z,1008.34
2018-07-27T09:36:58.198Z,1008.33
2018-07-27T09:37:58.237Z,1008.34
2018-07-27T09:38:58.322Z,1008.29
2018-07-27T09:39:58.617Z,1008.30
2018-07-27T09:40:58.344Z,1008.31
2018-07-27T09:41:58.382Z,1008.27
2018-07-27T09:42:58.418Z,1008.32
2018-07-27T09:43:58.513Z,1008.33
2018-07-27T09:44:58.542Z,1008.34
2018-07-27T09:45:58.549Z,1008.27
2018-07-27T09:46:58.863Z,1008.27
2018-07-27T09:47:58.656Z,1008.26
2018-07-27T09:48:58.696Z,1008.25
2018-07-27T09:49:58.726Z,1008.27
2018-07-27T09:50:58.723Z,1008.25
2018-07-27T09:51:58.766Z,1008.22
2018-07-27T09:52:58.838Z,1008.25
2018-07-27T09:53:59.131Z,1008.21
2018-07-27T09:54:58.859Z,1008.21
2018-07-27T09:55:58.905Z,1008.21
2018-07-27T09:56:58.992Z,1008.21
2018-07-27T09:57:59.151Z,1008.18
2018-07-27T09:58:59.065Z,1008.15
2018-07-27T09:59:59.062Z,1008.18
2018-07-27T10:00:59.135Z,1008.18
2018-07-27T10:01:59.130Z,1008.23
2018-07-27T10:02:59.156Z,1008.22
2018-07-27T10:03:59.247Z,1008.19
2018-07-27T10:04:59.285Z,1008.18
2018-07-27T10:05:59.294Z,1008.19
2018-07-27T10:06:59.659Z,1008.14
2018-07-27T10:07:59.349Z,1008.15
2018-07-27T10:08:59.382Z,1008.16
2018-07-27T10:09:59.427Z,1008.10
2018-07-27T10:10:59.462Z,1008.11
2018-07-27T10:11:59.541Z,1008.04
2018-07-27T10:12:59.588Z,1008.07
2018-07-27T10:13:59.871Z,1008.08
2018-07-27T10:14:59.603Z,1008.14
2018-07-27T10:15:59.647Z,1008.12
2018-07-27T10:17:59.717Z,1008.09
2018-07-27T10:18:59.751Z,1008.10
2018-07-27T10:19:59.844Z,1008.07
2018-07-27T10:21:00.181Z,1008.09
2018-07-27T10:21:59.918Z,1008.10
2018-07-27T10:22:59.911Z,1008.05
2018-07-27T10:23:59.957Z,1008.05
2018-07-27T10:24:59.977Z,1008.02
2018-07-27T10:26:00.067Z,1008.05
2018-07-27T10:27:00.053Z,1008.04
2018-07-27T10:28:00.389Z,1008.02
2018-07-27T10:29:00.174Z,1008.01
2018-07-27T10:30:00.162Z,1008.00
2018-07-27T10:31:00.266Z,1007.99
2018-07-27T10:32:00.235Z,1007.93
2018-07-27T10:33:00.371Z,1007.96
2018-07-27T10:34:00.319Z,1007.95
2018-07-27T10:35:00.649Z,1007.96
2018-07-27T10:36:00.433Z,1007.94
2018-07-27T10:37:00.427Z,1007.88
2018-07-27T10:38:00.467Z,1007.90
2018-07-27T10:39:00.557Z,1007.91
2018-07-27T10:40:00.588Z,1007.86
2018-07-27T10:41:00.871Z,1007.92
2018-07-27T10:42:00.655Z,1007.89
2018-07-27T10:43:00.661Z,1007.91
2018-07-27T10:44:00.732Z,1007.84
2018-07-27T10:45:00.767Z,1007.85
2018-07-27T10:46:00.809Z,1007.87
2018-07-27T10:47:01.098Z,1007.84
2018-07-27T10:48:00.885Z,1007.84
2018-07-27T10:49:00.871Z,1007.82
2018-07-27T10:51:01.006Z,1007.79
2018-07-27T10:52:00.977Z,1007.79
2018-07-27T10:53:01.371Z,1007.77
2018-07-27T10:54:01.112Z,1007.69
2018-07-27T10:55:01.153Z,1007.72
2018-07-27T10:56:01.127Z,1007.69
2018-07-27T10:58:01.199Z,1007.65
2018-07-27T10:59:01.307Z,1007.66
2018-07-27T11:00:01.631Z,1007.65
2018-07-27T11:02:01.377Z,1007.69
2018-07-27T11:03:01.395Z,1007.72
2018-07-27T11:05:01.530Z,1007.74
2018-07-27T11:06:01.949Z,1007.71
2018-07-27T11:07:02.894Z,1007.66
2018-07-27T11:08:01.574Z,1007.65
2018-07-27T11:09:01.672Z,1007.63
2018-07-27T11:10:01.786Z,1007.62
2018-07-27T11:11:01.690Z,1007.63
2018-07-27T11:12:01.775Z,1007.57
2018-07-27T11:13:01.823Z,1007.62
2018-07-27T11:14:02.158Z,1007.56
2018-07-27T11:15:02.412Z,1007.59
2018-07-27T11:16:01.873Z,1007.56
2018-07-27T11:17:01.967Z,1007.54
2018-07-27T11:18:02.007Z,1007.53
2018-07-27T11:19:02.046Z,1007.54
2018-07-27T11:20:02.100Z,1007.47
2018-07-27T11:21:02.460Z,1007.52
2018-07-27T11:22:02.170Z,1007.54
2018-07-27T11:23:02.136Z,1007.44
2018-07-27T11:24:02.221Z,1007.43
2018-07-27T11:25:02.264Z,1007.52
2018-07-27T11:26:02.295Z,1007.48
2018-07-27T11:27:02.283Z,1007.45
2018-07-27T11:28:02.635Z,1007.49
2018-07-27T11:29:02.475Z,1007.43
2018-07-27T11:30:02.831Z,1007.41
2018-07-27T11:31:02.554Z,1007.36
2018-07-27T11:32:02.526Z,1007.35
2018-07-27T11:33:02.597Z,1007.34
2018-07-27T11:34:02.550Z,1007.32
2018-07-27T11:35:02.888Z,1007.30
2018-07-27T11:36:02.636Z,1007.30
2018-07-27T11:37:02.950Z,1007.34
2018-07-27T11:38:02.746Z,1007.32
2018-07-27T11:39:02.792Z,1007.32
2018-07-27T11:40:02.776Z,1007.26
2018-07-27T11:41:02.855Z,1007.21
2018-07-27T11:42:03.141Z,1007.21
2018-07-27T11:43:02.883Z,1007.19
2018-07-27T11:44:02.932Z,1007.19
2018-07-27T11:45:02.962Z,1007.16
2018-07-27T11:46:02.993Z,1007.18
2018-07-27T11:47:03.081Z,1007.17
2018-07-27T11:48:03.128Z,1007.15
2018-07-27T11:49:03.412Z,1007.13
2018-07-27T11:50:03.196Z,1007.16
2018-07-27T11:51:03.185Z,1007.10
2018-07-27T11:52:03.215Z,1007.15
2018-07-27T11:53:03.305Z,1007.12
2018-07-27T11:54:03.301Z,1007.13
2018-07-27T11:55:03.379Z,1007.13
2018-07-27T11:56:03.673Z,1007.13
2018-07-27T11:57:03.454Z,1007.13
2018-07-27T11:58:03.443Z,1007.08
2018-07-27T11:59:03.498Z,1007.04
2018-07-27T12:00:03.567Z,1007.05
2018-07-27T12:01:03.567Z,1007.05
2018-07-27T12:02:03.592Z,1007.04
2018-07-27T12:03:03.632Z,1007.04
2018-07-27T12:04:03.675Z,1007.01
2018-07-27T12:05:03.761Z,1006.97
2018-07-27T12:06:03.791Z,1006.95
2018-07-27T12:07:03.847Z,1006.96
2018-07-27T12:08:03.823Z,1006.94
2018-07-27T12:09:04.217Z,1006.93
2018-07-27T12:10:03.899Z,1006.93
2018-07-27T12:11:03.989Z,1006.93
2018-07-27T12:12:04.019Z,1006.94
2018-07-27T12:13:04.052Z,1006.95
2018-07-27T12:14:04.204Z,1006.89
2018-07-27T12:15:04.708Z,1006.92
2018-07-27T12:16:04.169Z,1006.88
2018-07-27T12:17:04.152Z,1006.88
2018-07-27T12:18:04.213Z,1006.85
2018-07-27T12:19:04.290Z,1006.85
2018-07-27T12:20:04.272Z,1006.84
2018-07-27T12:21:04.649Z,1006.83
2018-07-27T12:22:04.401Z,1006.79
2018-07-27T12:23:04.377Z,1006.77
2018-07-27T12:24:04.466Z,1006.71
2018-07-27T12:25:04.454Z,1006.76
2018-07-27T12:26:04.495Z,1006.74
2018-07-27T12:27:04.634Z,1006.76
2018-07-27T12:28:04.575Z,1006.72
2018-07-27T12:29:04.671Z,1006.73